createdAt,value
2019-06-20T00:01:26.392Z,21.97
2019-06-20T00:03:55.676Z,22.85
2019-06-20T00:06:24.918Z,23.05
2019-06-20T00:08:54.174Z,23.27
2019-06-20T00:11:23.389Z,23.90
2019-06-20T00:13:52.941Z,25.30
2019-06-20T00:16:22.205Z,23.90
2019-06-20T00:18:51.494Z,24.55
2019-06-20T00:21:20.849Z,25.60
2019-06-20T00:23:50.061Z,24.20
2019-06-20T00:26:19.263Z,25.08
2019-06-20T00:28:48.476Z,26.10
2019-06-20T00:31:17.721Z,26.33
2019-06-20T00:33:47.017Z,27.05
2019-06-20T00:36:16.268Z,28.52
2019-06-20T00:38:45.500Z,28.65
2019-06-20T00:41:14.942Z,27.48
2019-06-20T00:43:44.181Z,29.63
2019-06-20T00:46:13.508Z,28.80
2019-06-20T00:48:42.824Z,30.23
2019-06-20T00:51:12.136Z,29.75
2019-06-20T00:53:41.339Z,30.32
2019-06-20T00:56:10.539Z,30.37
2019-06-20T00:58:39.846Z,30.45
2019-06-20T01:01:09.291Z,29.80
2019-06-20T01:03:38.571Z,31.40
2019-06-20T01:06:07.843Z,32.73
2019-06-20T01:08:37.180Z,32.80
2019-06-20T01:11:06.501Z,32.58
2019-06-20T01:13:35.887Z,31.95
2019-06-20T01:16:05.164Z,34.30
2019-06-20T01:18:34.442Z,34.70
2019-06-20T01:21:03.730Z,34.08
2019-06-20T01:23:32.994Z,34.40
2019-06-20T01:26:02.326Z,32.83
2019-06-20T01:28:31.649Z,34.80
2019-06-20T01:31:00.988Z,34.40
2019-06-20T01:33:30.276Z,34.63
2019-06-20T01:35:59.786Z,35.35
2019-06-20T01:38:29.097Z,35.68
2019-06-20T01:40:58.374Z,34.98
2019-06-20T01:43:27.627Z,36.38
2019-06-20T01:45:56.982Z,35.95
2019-06-20T01:48:26.253Z,37.45
2019-06-20T01:50:55.502Z,35.20
2019-06-20T01:53:24.869Z,37.05
2019-06-20T01:55:54.120Z,37.73
2019-06-20T01:58:23.437Z,38.95
2019-06-20T02:00:52.752Z,38.40
2019-06-20T02:03:22.091Z,41.33
2019-06-20T02:05:51.458Z,39.33
2019-06-20T02:08:20.773Z,39.90
2019-06-20T02:10:49.977Z,41.50
2019-06-20T02:13:19.228Z,42.58
2019-06-20T02:15:48.689Z,40.00
2019-06-20T02:18:20.907Z,37.48
2019-06-20T02:20:52.942Z,39.50
2019-06-20T02:23:22.956Z,38.17
2019-06-20T02:25:52.225Z,36.42
2019-06-20T02:28:21.540Z,38.30
2019-06-20T02:30:50.807Z,35.23
2019-06-20T02:33:20.009Z,35.30
2019-06-20T02:35:49.375Z,35.25
2019-06-20T02:38:18.621Z,34.43
2019-06-20T02:40:47.881Z,34.78
2019-06-20T02:43:17.185Z,35.48
2019-06-20T02:45:46.506Z,33.63
2019-06-20T02:48:15.761Z,35.28
2019-06-20T02:50:45.143Z,33.65
2019-06-20T02:53:14.410Z,33.63
2019-06-20T02:55:43.717Z,34.58
2019-06-20T02:58:13.004Z,36.80
2019-06-20T03:01:00.263Z,34.30
2019-06-20T03:03:30.253Z,34.33
2019-06-20T03:05:59.640Z,33.63
2019-06-20T03:08:28.974Z,33.95
2019-06-20T03:10:58.397Z,34.30
2019-06-20T03:13:27.715Z,33.48
2019-06-20T03:15:57.171Z,33.67
2019-06-20T03:18:26.436Z,33.55
2019-06-20T03:20:55.772Z,33.75
2019-06-20T03:23:25.026Z,33.18
2019-06-20T03:25:54.294Z,34.92
2019-06-20T03:28:23.637Z,34.40
2019-06-20T03:30:52.927Z,34.13
2019-06-20T03:33:25.125Z,34.13
2019-06-20T03:35:54.417Z,33.23
2019-06-20T03:38:23.699Z,34.05
2019-06-20T03:40:53.029Z,34.10
2019-06-20T03:43:22.324Z,36.05
2019-06-20T03:45:52.095Z,34.20
2019-06-20T03:48:24.846Z,34.40
2019-06-20T03:50:54.561Z,33.35
2019-06-20T03:53:23.903Z,33.67
2019-06-20T03:55:53.418Z,34.55
2019-06-20T03:58:22.704Z,36.30
2019-06-20T04:00:51.905Z,35.30
2019-06-20T04:03:21.195Z,34.53
2019-06-20T04:05:50.393Z,34.33
2019-06-20T04:08:19.606Z,34.70
2019-06-20T04:10:48.827Z,35.78
2019-06-20T04:13:18.164Z,35.23
2019-06-20T04:15:47.465Z,34.58
2019-06-20T04:18:16.785Z,34.98
2019-06-20T04:20:46.036Z,35.55
2019-06-20T04:23:15.386Z,36.08
2019-06-20T04:25:44.740Z,34.70
2019-06-20T04:28:14.069Z,36.25
2019-06-20T04:30:43.396Z,35.35
2019-06-20T04:33:12.927Z,35.30
2019-06-20T04:35:42.199Z,35.73
2019-06-20T04:38:11.468Z,34.45
2019-06-20T04:40:40.758Z,33.40
2019-06-20T04:43:10.120Z,34.85
2019-06-20T04:45:54.764Z,34.05
2019-06-20T04:48:24.426Z,34.08
2019-06-20T04:50:53.818Z,35.38
2019-06-20T04:53:23.416Z,34.98
2019-06-20T04:55:52.664Z,36.53
2019-06-20T04:58:21.901Z,36.00
2019-06-20T05:00:51.553Z,35.68
2019-06-20T05:03:21.130Z,36.73
2019-06-20T05:05:50.684Z,36.75
2019-06-20T05:08:20.119Z,36.93
2019-06-20T05:10:49.425Z,34.98
2019-06-20T05:13:18.676Z,36.20
2019-06-20T05:15:52.646Z,36.55
2019-06-20T05:18:18.991Z,33.88
2019-06-20T05:20:48.187Z,34.83
2019-06-20T05:23:17.495Z,34.60
2019-06-20T05:25:46.686Z,36.70
2019-06-20T05:28:15.993Z,35.00
2019-06-20T05:30:45.374Z,37.85
2019-06-20T05:33:14.659Z,37.80
2019-06-20T05:35:43.875Z,39.13
2019-06-20T05:38:13.499Z,41.48
2019-06-20T05:40:42.806Z,40.88
2019-06-20T05:43:12.152Z,41.55
2019-06-20T05:45:44.441Z,44.20
2019-06-20T05:48:12.846Z,43.08
2019-06-20T05:50:42.285Z,42.83
2019-06-20T05:53:11.620Z,43.28
2019-06-20T05:55:41.089Z,42.43
2019-06-20T05:58:10.952Z,42.90
2019-06-20T06:00:43.028Z,43.78
2019-06-20T06:03:13.753Z,44.33
2019-06-20T06:05:43.288Z,42.75
2019-06-20T06:08:12.727Z,45.33
2019-06-20T06:10:44.824Z,44.83
2019-06-20T06:13:14.051Z,42.90
2019-06-20T06:15:43.288Z,44.40
2019-06-20T06:18:12.779Z,43.20
2019-06-20T06:20:44.839Z,42.33
2019-06-20T06:23:13.077Z,42.43
2019-06-20T06:25:42.805Z,42.08
2019-06-20T06:28:12.690Z,39.98
2019-06-20T06:30:42.159Z,40.95
2019-06-20T06:33:11.508Z,38.48
2019-06-20T06:35:40.757Z,37.03
2019-06-20T06:38:10.027Z,38.78
2019-06-20T06:40:39.577Z,36.40
2019-06-20T06:43:08.855Z,37.38
2019-06-20T06:45:38.122Z,37.03
2019-06-20T06:48:07.379Z,33.83
2019-06-20T06:50:36.697Z,33.18
2019-06-20T06:53:06.009Z,33.60
2019-06-20T06:55:35.417Z,33.28
2019-06-20T06:58:04.653Z,30.45
2019-06-20T07:00:33.892Z,28.73
2019-06-20T07:03:03.180Z,26.50
2019-06-20T07:05:32.480Z,27.70
2019-06-20T07:08:01.759Z,26.15
2019-06-20T07:10:31.058Z,29.95
2019-06-20T07:13:03.416Z,30.02
2019-06-20T07:15:32.743Z,28.83
2019-06-20T07:18:02.021Z,28.50
2019-06-20T07:20:31.538Z,27.58
2019-06-20T07:23:00.833Z,28.00
2019-06-20T07:25:30.126Z,27.35
2019-06-20T07:27:59.369Z,26.40
2019-06-20T07:30:28.650Z,28.05
2019-06-20T07:32:57.868Z,25.75
2019-06-20T07:35:27.174Z,24.85
2019-06-20T07:37:56.515Z,23.95
2019-06-20T07:40:25.863Z,22.45
2019-06-20T07:42:55.104Z,21.50
2019-06-20T07:45:27.510Z,20.32
2019-06-20T07:47:56.985Z,19.90
2019-06-20T07:50:26.586Z,18.42
2019-06-20T07:53:01.902Z,19.10
2019-06-20T07:55:26.985Z,19.55
2019-06-20T07:57:56.256Z,20.88
2019-06-20T08:00:28.368Z,19.87
2019-06-20T08:02:57.681Z,19.67
2019-06-20T08:05:26.960Z,19.27
2019-06-20T08:07:56.137Z,19.60
2019-06-20T08:10:26.866Z,18.65
2019-06-20T08:12:56.156Z,17.85
2019-06-20T08:15:25.554Z,16.82
2019-06-20T08:17:54.872Z,15.23
2019-06-20T08:20:25.136Z,14.85
2019-06-20T08:22:54.371Z,16.05
2019-06-20T08:25:23.611Z,16.05
2019-06-20T08:27:53.295Z,18.23
2019-06-20T08:30:24.559Z,19.92
2019-06-20T08:32:54.291Z,19.95
2019-06-20T08:35:25.071Z,20.60
2019-06-20T08:37:56.072Z,20.12
2019-06-20T08:40:26.691Z,18.77
2019-06-20T08:42:57.189Z,18.92
2019-06-20T08:45:29.841Z,17.85
2019-06-20T08:48:00.097Z,16.75
2019-06-20T08:50:29.583Z,17.17
2019-06-20T08:52:59.804Z,16.32
2019-06-20T08:55:29.189Z,15.00
2019-06-20T08:57:59.688Z,15.10
2019-06-20T09:00:30.391Z,16.50
2019-06-20T09:03:00.541Z,13.53
2019-06-20T09:05:30.900Z,12.37
2019-06-20T09:10:39.947Z,11.85
2019-06-20T09:13:10.913Z,11.68
2019-06-20T09:15:40.284Z,12.53
2019-06-20T09:18:09.574Z,12.25
2019-06-20T09:20:39.675Z,11.45
2019-06-20T09:23:08.904Z,13.25
2019-06-20T09:25:38.079Z,12.65
2019-06-20T09:28:08.333Z,12.37
2019-06-20T09:30:38.313Z,11.88
2019-06-20T09:33:07.693Z,11.53
2019-06-20T09:35:37.089Z,12.78
2019-06-20T09:38:06.808Z,11.12
2019-06-20T09:40:36.048Z,10.88
2019-06-20T09:43:05.753Z,11.40
2019-06-20T09:45:35.182Z,11.48
2019-06-20T09:48:04.447Z,11.75
2019-06-20T09:50:33.705Z,10.72
2019-06-20T09:53:02.994Z,10.08
2019-06-20T09:55:35.019Z,8.68
2019-06-20T09:58:04.550Z,8.88
2019-06-20T10:00:34.177Z,9.08
2019-06-20T10:03:03.861Z,8.05
2019-06-20T10:05:33.201Z,7.50
2019-06-20T10:08:02.610Z,7.67
2019-06-20T10:10:33.373Z,8.60
2019-06-20T10:13:02.801Z,9.05
2019-06-20T10:15:32.905Z,9.00
2019-06-20T10:18:02.243Z,8.55
2019-06-20T10:20:31.564Z,8.98
2019-06-20T10:23:00.833Z,8.33
2019-06-20T10:25:30.050Z,9.85
2019-06-20T10:27:59.277Z,8.60
2019-06-20T10:30:28.964Z,8.25
2019-06-20T10:32:58.182Z,7.92
2019-06-20T10:35:27.651Z,8.28
2019-06-20T10:37:57.309Z,8.03
2019-06-20T10:40:26.702Z,7.12
2019-06-20T10:42:56.865Z,7.17
2019-06-20T10:45:28.236Z,6.92
2019-06-20T10:47:57.452Z,7.47
2019-06-20T10:50:27.478Z,7.03
2019-06-20T10:52:56.762Z,7.72
2019-06-20T10:55:26.008Z,7.65
2019-06-20T10:57:55.354Z,7.90
2019-06-20T11:00:31.524Z,7.83
2019-06-20T11:02:56.819Z,8.75
2019-06-20T11:05:26.218Z,7.45
2019-06-20T11:07:55.509Z,7.25
2019-06-20T11:10:25.141Z,8.23
2019-06-20T11:12:56.162Z,7.78
2019-06-20T11:15:25.693Z,8.68
2019-06-20T11:17:56.664Z,8.40
2019-06-20T11:20:26.384Z,7.62
2019-06-20T11:22:55.654Z,8.35
2019-06-20T11:25:29.224Z,8.58
2019-06-20T11:27:58.427Z,9.15
2019-06-20T11:30:28.785Z,8.43
2019-06-20T11:32:58.102Z,8.28
2019-06-20T11:35:27.322Z,7.62
2019-06-20T11:37:56.714Z,8.53
2019-06-20T11:40:26.018Z,8.40
2019-06-20T11:42:55.366Z,8.20
2019-06-20T11:45:24.883Z,8.08
2019-06-20T11:47:54.197Z,7.80
2019-06-20T11:50:23.810Z,8.03
2019-06-20T11:52:53.198Z,8.78
2019-06-20T11:55:22.570Z,8.73
2019-06-20T11:57:51.850Z,9.08
2019-06-20T12:00:21.947Z,8.48
2019-06-20T12:02:51.247Z,7.60
2019-06-20T12:05:20.662Z,7.62
2019-06-20T12:07:50.243Z,6.85
2019-06-20T12:10:19.930Z,7.42
2019-06-20T12:12:49.345Z,6.40
2019-06-20T12:15:18.907Z,6.03
2019-06-20T12:17:49.320Z,6.80
2019-06-20T12:20:20.451Z,6.05
2019-06-20T12:22:50.734Z,5.87
2019-06-20T12:25:20.528Z,5.35
2019-06-20T12:27:49.947Z,5.70
2019-06-20T12:30:20.134Z,5.40
2019-06-20T12:32:49.616Z,5.03
2019-06-20T12:35:19.428Z,4.47
2019-06-20T12:37:50.074Z,5.90
2019-06-20T12:40:19.655Z,4.45
2019-06-20T12:42:49.360Z,3.50
2019-06-20T12:45:18.912Z,3.90
2019-06-20T12:47:48.186Z,4.35
2019-06-20T12:50:18.036Z,4.83
2019-06-20T12:52:47.748Z,3.40
2019-06-20T12:55:17.813Z,3.25
2019-06-20T12:57:48.382Z,2.87
2019-06-20T13:00:17.775Z,2.00
2019-06-20T13:02:47.445Z,2.12
2019-06-20T13:05:17.387Z,1.65
2019-06-20T13:07:47.145Z,1.57
2019-06-20T13:10:18.223Z,0.80
2019-06-20T13:12:48.731Z,0.98
2019-06-20T13:15:18.280Z,1.17
2019-06-20T13:17:48.909Z,0.95
2019-06-20T13:20:18.649Z,1.00
2019-06-20T13:22:49.349Z,0.78
2019-06-20T13:25:18.867Z,0.82
2019-06-20T13:27:48.228Z,0.80
2019-06-20T13:30:17.614Z,0.80
2019-06-20T13:32:47.256Z,1.22
2019-06-20T13:35:16.836Z,1.30
2019-06-20T13:37:47.664Z,0.95
2019-06-20T13:40:17.931Z,1.45
2019-06-20T13:42:48.045Z,1.50
2019-06-20T13:45:22.659Z,1.90
2019-06-20T13:47:52.154Z,2.10
2019-06-20T13:50:22.075Z,1.77
2019-06-20T13:52:51.669Z,1.50
2019-06-20T13:55:21.170Z,1.60
2019-06-20T13:57:50.542Z,1.30
2019-06-20T14:00:21.187Z,1.75
2019-06-20T14:02:51.552Z,2.05
2019-06-20T14:05:21.283Z,2.45
2019-06-20T14:07:53.560Z,2.02
2019-06-20T14:10:21.746Z,2.10
2019-06-20T14:12:50.962Z,1.60
2019-06-20T14:15:20.593Z,1.75
2019-06-20T14:17:50.055Z,2.20
2019-06-20T14:20:19.980Z,1.95
2019-06-20T14:22:49.691Z,1.60
2019-06-20T14:25:20.855Z,2.02
2019-06-20T14:27:51.550Z,1.92
2019-06-20T14:30:21.409Z,2.20
2019-06-20T14:32:51.455Z,2.10
2019-06-20T14:35:24.072Z,2.17
2019-06-20T14:37:53.514Z,2.08
2019-06-20T14:40:24.310Z,1.90
2019-06-20T14:42:54.367Z,1.70
2019-06-20T14:45:23.752Z,1.67
2019-06-20T14:47:53.100Z,1.82
2019-06-20T14:50:22.473Z,1.87
2019-06-20T14:52:52.451Z,2.67
2019-06-20T14:55:23.078Z,2.00
2019-06-20T14:57:52.639Z,3.20
2019-06-20T15:00:24.335Z,4.35
2019-06-20T15:02:58.064Z,4.20
2019-06-20T15:05:24.513Z,2.83
2019-06-20T15:07:55.402Z,2.10
2019-06-20T15:10:24.772Z,1.82
2019-06-20T15:12:55.676Z,1.92
2019-06-20T15:15:25.047Z,1.90
2019-06-20T15:17:56.367Z,1.95
2019-06-20T15:20:25.390Z,2.00
2019-06-20T15:22:54.831Z,2.02
2019-06-20T15:25:24.261Z,2.25
2019-06-20T15:27:55.330Z,2.10
2019-06-20T15:30:24.403Z,1.40
2019-06-20T15:33:05.510Z,1.70
2019-06-20T15:35:24.717Z,1.95
2019-06-20T15:37:55.489Z,1.85
2019-06-20T15:40:24.895Z,1.75
2019-06-20T15:42:55.355Z,1.62
2019-06-20T15:45:25.539Z,1.42
2019-06-20T15:47:54.763Z,1.57
2019-06-20T15:50:24.054Z,1.70
2019-06-20T15:52:53.430Z,1.80
2019-06-20T15:55:23.098Z,1.50
2019-06-20T15:57:54.244Z,2.05
2019-06-20T16:00:23.487Z,2.10
2019-06-20T16:02:52.885Z,1.90
2019-06-20T16:05:22.163Z,2.10
2019-06-20T16:07:51.367Z,2.20
2019-06-20T16:10:20.588Z,2.00
2019-06-20T16:12:49.861Z,2.17
2019-06-20T16:15:22.689Z,1.90
2019-06-20T16:17:51.973Z,1.95
2019-06-20T16:20:21.495Z,1.80
2019-06-20T16:22:51.105Z,1.55
2019-06-20T16:25:20.350Z,2.10
2019-06-20T16:27:49.607Z,1.90
2019-06-20T16:30:19.582Z,1.82
2019-06-20T16:32:49.865Z,1.80
2019-06-20T16:35:19.238Z,1.98
2019-06-20T16:37:49.016Z,2.10
2019-06-20T16:40:24.199Z,2.20
2019-06-20T16:42:53.430Z,2.12
2019-06-20T16:45:22.700Z,2.42
2019-06-20T16:47:51.979Z,2.05
2019-06-20T16:50:21.253Z,2.00
2019-06-20T16:52:50.938Z,2.08
2019-06-20T16:55:20.230Z,2.15
2019-06-20T16:57:49.572Z,2.60
2019-06-20T17:00:18.958Z,2.20
2019-06-20T17:02:48.282Z,1.70
2019-06-20T17:05:17.885Z,2.15
2019-06-20T17:07:47.204Z,1.95
2019-06-20T17:10:16.468Z,2.10
2019-06-20T17:12:45.840Z,1.95
2019-06-20T17:15:15.264Z,2.10
2019-06-20T17:17:44.577Z,1.95
2019-06-20T17:20:14.369Z,2.50
2019-06-20T17:22:43.579Z,2.27
2019-06-20T17:25:13.070Z,2.20
2019-06-20T17:27:42.305Z,2.35
2019-06-20T17:30:12.318Z,2.08
2019-06-20T17:32:41.630Z,2.90
2019-06-20T17:35:13.173Z,2.40
2019-06-20T17:37:47.599Z,2.25
2019-06-20T17:40:20.454Z,2.72
2019-06-20T17:42:52.596Z,3.25
2019-06-20T17:45:22.172Z,2.72
2019-06-20T17:47:51.455Z,3.17
2019-06-20T17:50:21.650Z,3.58
2019-06-20T17:52:50.909Z,3.80
2019-06-20T17:55:20.080Z,3.87
2019-06-20T17:57:49.441Z,4.70
2019-06-20T18:00:19.374Z,5.10
2019-06-20T18:02:48.800Z,5.67
2019-06-20T18:05:18.116Z,5.20
2019-06-20T18:07:47.897Z,6.70
2019-06-20T18:10:17.780Z,6.80
2019-06-20T18:12:47.185Z,7.10
2019-06-20T18:15:22.670Z,7.58
2019-06-20T18:17:52.040Z,8.05
2019-06-20T18:20:21.456Z,8.13
2019-06-20T18:22:50.816Z,7.90
2019-06-20T18:25:20.101Z,7.87
2019-06-20T18:27:49.633Z,8.68
2019-06-20T18:30:20.618Z,8.38
2019-06-20T18:32:49.940Z,9.25
2019-06-20T18:35:19.213Z,9.35
2019-06-20T18:37:48.510Z,9.90
2019-06-20T18:40:17.812Z,8.75
2019-06-20T18:42:47.207Z,9.30
2019-06-20T18:45:16.696Z,7.80
2019-06-20T18:47:45.973Z,9.20
2019-06-20T18:50:15.386Z,7.80
2019-06-20T18:52:52.208Z,8.03
2019-06-20T18:55:15.880Z,7.60
2019-06-20T18:57:45.206Z,8.65
2019-06-20T19:00:14.509Z,7.90
2019-06-20T19:02:43.829Z,8.25
2019-06-20T19:05:13.469Z,7.95
2019-06-20T19:07:42.756Z,8.68
2019-06-20T19:10:12.590Z,7.60
2019-06-20T19:12:41.879Z,8.43
2019-06-20T19:15:13.288Z,7.72
2019-06-20T19:17:45.628Z,8.03
2019-06-20T19:20:15.977Z,7.83
2019-06-20T19:22:45.599Z,7.37
2019-06-20T19:25:15.635Z,7.85
2019-06-20T19:27:46.755Z,8.43
2019-06-20T19:30:16.549Z,8.53
2019-06-20T19:32:45.919Z,7.53
2019-06-20T19:35:15.503Z,8.28
2019-06-20T19:37:44.690Z,9.05
2019-06-20T19:40:14.213Z,8.55
2019-06-20T19:42:43.605Z,9.33
2019-06-20T19:45:15.313Z,9.15
2019-06-20T19:47:44.678Z,8.68
2019-06-20T19:50:17.359Z,9.63
2019-06-20T19:52:46.749Z,9.10
2019-06-20T19:55:17.085Z,8.88
2019-06-20T19:57:46.426Z,9.40
2019-06-20T20:00:17.157Z,9.68
2019-06-20T20:02:46.469Z,8.90
2019-06-20T20:05:19.369Z,9.35
2019-06-20T20:07:47.019Z,9.73
2019-06-20T20:10:17.935Z,9.28
2019-06-20T20:12:47.183Z,10.45
2019-06-20T20:15:17.901Z,9.83
2019-06-20T20:17:47.264Z,9.78
2019-06-20T20:20:16.798Z,9.13
2019-06-20T20:22:46.128Z,9.63
2019-06-20T20:25:15.527Z,10.03
2019-06-20T20:27:44.831Z,10.78
2019-06-20T20:30:14.926Z,10.48
2019-06-20T20:32:44.335Z,10.45
2019-06-20T20:35:13.678Z,9.73
2019-06-20T20:37:43.135Z,9.03
2019-06-20T20:40:13.821Z,8.53
2019-06-20T20:42:43.105Z,8.18
2019-06-20T20:45:12.829Z,8.88
2019-06-20T20:47:42.213Z,9.05
2019-06-20T20:50:11.512Z,8.60
2019-06-20T20:52:41.081Z,8.38
2019-06-20T20:55:10.696Z,8.95
2019-06-20T20:57:39.983Z,9.10
2019-06-20T21:00:10.513Z,9.60
2019-06-20T21:02:39.886Z,9.40
2019-06-20T21:05:09.669Z,10.00
2019-06-20T21:07:39.310Z,9.83
2019-06-20T21:10:08.614Z,9.80
2019-06-20T21:12:37.814Z,9.45
2019-06-20T21:15:07.392Z,9.38
2019-06-20T21:17:38.081Z,9.55
2019-06-20T21:20:07.451Z,9.58
2019-06-20T21:22:39.778Z,8.90
2019-06-20T21:25:09.374Z,8.23
2019-06-20T21:27:38.681Z,9.10
2019-06-20T21:30:09.605Z,8.13
2019-06-20T21:32:39.048Z,8.05
2019-06-20T21:35:09.062Z,7.58
2019-06-20T21:37:38.347Z,7.90
2019-06-20T21:40:08.022Z,7.12
2019-06-20T21:42:37.325Z,7.33
2019-06-20T21:45:07.200Z,7.42
2019-06-20T21:47:36.474Z,7.17
2019-06-20T21:50:06.368Z,6.85
2019-06-20T21:52:35.677Z,6.60
2019-06-20T21:55:05.683Z,6.28
2019-06-20T21:57:34.958Z,6.67
2019-06-20T22:00:06.201Z,5.97
2019-06-20T22:02:35.552Z,5.47
2019-06-20T22:05:05.535Z,5.12
2019-06-20T22:07:36.119Z,5.20
2019-06-20T22:10:06.109Z,5.37
2019-06-20T22:12:35.497Z,4.53
2019-06-20T22:15:05.181Z,5.25
2019-06-20T22:17:34.481Z,4.25
2019-06-20T22:20:04.443Z,4.58
2019-06-20T22:22:33.838Z,3.98
2019-06-20T22:25:03.086Z,4.83
2019-06-20T22:27:32.470Z,4.28
2019-06-20T22:30:03.928Z,4.58
2019-06-20T22:32:32.772Z,4.50
2019-06-20T22:35:02.027Z,4.37
2019-06-20T22:37:31.293Z,4.83
2019-06-20T22:40:00.517Z,4.58
2019-06-20T22:42:29.729Z,5.33
2019-06-20T22:44:59.104Z,4.95
2019-06-20T22:47:28.448Z,4.67
2019-06-20T22:49:57.772Z,5.08
2019-06-20T22:52:27.108Z,5.08
2019-06-20T22:54:56.458Z,4.33
2019-06-20T22:57:25.794Z,4.95
2019-06-20T22:59:55.115Z,5.72
2019-06-20T23:02:24.424Z,5.45
2019-06-20T23:04:53.702Z,4.97
2019-06-20T23:07:23.003Z,5.05
2019-06-20T23:09:52.296Z,6.00
2019-06-20T23:12:21.571Z,5.60
2019-06-20T23:14:50.879Z,5.85
2019-06-20T23:17:20.170Z,5.85
2019-06-20T23:19:49.497Z,5.25
2019-06-20T23:22:18.762Z,5.83
2019-06-20T23:24:48.208Z,5.72
2019-06-20T23:27:17.482Z,6.37
2019-06-20T23:29:46.754Z,6.37
2019-06-20T23:32:16.008Z,7.62
2019-06-20T23:34:45.381Z,6.72
2019-06-20T23:37:14.713Z,6.55
2019-06-20T23:39:44.014Z,6.35
2019-06-20T23:42:13.263Z,6.92
2019-06-20T23:44:42.571Z,5.75
2019-06-20T23:47:11.886Z,6.33
2019-06-20T23:49:41.167Z,5.42
2019-06-20T23:52:14.978Z,4.97
2019-06-20T23:54:44.281Z,4.97
2019-06-20T23:57:13.571Z,5.60
2019-06-20T23:59:42.829Z,4.83
